sensor_id;sensor_type;location;lat;lon;timestamp;temperature;humidity
12426;DHT22;6277;49.824;9.562;2022-12-07T00:01:22;4.90;73.80
12426;DHT22;6277;49.824;9.562;2022-12-07T00:03:51;5.00;73.80
12426;DHT22;6277;49.824;9.562;2022-12-07T00:06:17;5.00;73.70
12426;DHT22;6277;49.824;9.562;2022-12-07T00:08:43;5.10;73.60
12426;DHT22;6277;49.824;9.562;2022-12-07T00:11:12;5.20;73.70
12426;DHT22;6277;49.824;9.562;2022-12-07T00:13:38;5.20;73.60
12426;DHT22;6277;49.824;9.562;2022-12-07T00:16:10;5.30;73.60
12426;DHT22;6277;49.824;9.562;2022-12-07T00:18:37;5.30;73.50
12426;DHT22;6277;49.824;9.562;2022-12-07T00:21:05;5.40;73.50
12426;DHT22;6277;49.824;9.562;2022-12-07T00:23:31;5.40;73.40
12426;DHT22;6277;49.824;9.562;2022-12-07T00:26:04;5.50;73.40
12426;DHT22;6277;49.824;9.562;2022-12-07T00:28:29;5.50;73.40
12426;DHT22;6277;49.824;9.562;2022-12-07T00:31:06;5.50;73.30
12426;DHT22;6277;49.824;9.562;2022-12-07T00:33:33;5.60;73.40
12426;DHT22;6277;49.824;9.562;2022-12-07T00:35:59;5.60;73.30
12426;DHT22;6277;49.824;9.562;2022-12-07T00:38:28;5.60;73.30
12426;DHT22;6277;49.824;9.562;2022-12-07T00:40:58;5.70;73.30
12426;DHT22;6277;49.824;9.562;2022-12-07T00:43:24;5.70;73.20
12426;DHT22;6277;49.824;9.562;2022-12-07T00:45:50;5.80;73.20
12426;DHT22;6277;49.824;9.562;2022-12-07T00:48:16;5.80;73.00
12426;DHT22;6277;49.824;9.562;2022-12-07T00:50:41;5.80;73.00
12426;DHT22;6277;49.824;9.562;2022-12-07T00:53:07;5.80;72.90
12426;DHT22;6277;49.824;9.562;2022-12-07T00:55:33;5.80;72.90
12426;DHT22;6277;49.824;9.562;2022-12-07T00:57:59;5.90;73.00
12426;DHT22;6277;49.824;9.562;2022-12-07T01:00:24;5.80;72.90
12426;DHT22;6277;49.824;9.562;2022-12-07T01:02:50;5.90;73.10
12426;DHT22;6277;49.824;9.562;2022-12-07T01:05:15;5.90;73.10
12426;DHT22;6277;49.824;9.562;2022-12-07T01:07:41;5.90;73.20
12426;DHT22;6277;49.824;9.562;2022-12-07T01:10:07;6.00;73.20
12426;DHT22;6277;49.824;9.562;2022-12-07T01:12:33;6.10;73.20
12426;DHT22;6277;49.824;9.562;2022-12-07T01:14:58;6.10;73.20
12426;DHT22;6277;49.824;9.562;2022-12-07T01:17:24;6.10;73.10
12426;DHT22;6277;49.824;9.562;2022-12-07T01:19:49;6.10;73.10
12426;DHT22;6277;49.824;9.562;2022-12-07T01:22:15;6.20;73.10
12426;DHT22;6277;49.824;9.562;2022-12-07T01:24:40;6.20;73.00
12426;DHT22;6277;49.824;9.562;2022-12-07T01:27:06;6.30;73.00
12426;DHT22;6277;49.824;9.562;2022-12-07T01:29:31;6.30;73.00
12426;DHT22;6277;49.824;9.562;2022-12-07T01:31:57;6.30;72.90
12426;DHT22;6277;49.824;9.562;2022-12-07T01:34:23;6.30;72.90
12426;DHT22;6277;49.824;9.562;2022-12-07T01:36:48;6.40;72.90
12426;DHT22;6277;49.824;9.562;2022-12-07T01:39:14;6.40;72.90
12426;DHT22;6277;49.824;9.562;2022-12-07T01:41:40;6.40;72.90
12426;DHT22;6277;49.824;9.562;2022-12-07T01:44:30;6.50;72.80
12426;DHT22;6277;49.824;9.562;2022-12-07T01:47:02;6.50;72.80
12426;DHT22;6277;49.824;9.562;2022-12-07T01:50:06;6.50;72.70
12426;DHT22;6277;49.824;9.562;2022-12-07T01:52:29;6.50;72.70
12426;DHT22;6277;49.824;9.562;2022-12-07T01:54:59;6.50;72.70
12426;DHT22;6277;49.824;9.562;2022-12-07T01:57:27;6.50;72.60
12426;DHT22;6277;49.824;9.562;2022-12-07T01:59:54;6.50;72.60
12426;DHT22;6277;49.824;9.562;2022-12-07T02:02:26;6.50;72.50
12426;DHT22;6277;49.824;9.562;2022-12-07T02:04:54;6.50;72.50
12426;DHT22;6277;49.824;9.562;2022-12-07T02:07:22;6.50;72.50
12426;DHT22;6277;49.824;9.562;2022-12-07T02:09:48;6.50;72.40
12426;DHT22;6277;49.824;9.562;2022-12-07T02:12:14;6.50;72.50
12426;DHT22;6277;49.824;9.562;2022-12-07T02:14:39;6.50;72.50
12426;DHT22;6277;49.824;9.562;2022-12-07T02:17:40;6.50;72.40
12426;DHT22;6277;49.824;9.562;2022-12-07T02:31:18;6.60;72.40
12426;DHT22;6277;49.824;9.562;2022-12-07T02:33:50;6.60;72.40
12426;DHT22;6277;49.824;9.562;2022-12-07T02:36:25;6.50;72.30
12426;DHT22;6277;49.824;9.562;2022-12-07T02:38:58;6.50;72.30
12426;DHT22;6277;49.824;9.562;2022-12-07T02:41:34;6.50;72.40
12426;DHT22;6277;49.824;9.562;2022-12-07T02:44:13;6.50;72.40
12426;DHT22;6277;49.824;9.562;2022-12-07T02:46:43;6.50;72.50
12426;DHT22;6277;49.824;9.562;2022-12-07T02:49:10;6.50;72.50
12426;DHT22;6277;49.824;9.562;2022-12-07T02:51:42;6.50;72.40
12426;DHT22;6277;49.824;9.562;2022-12-07T02:54:17;6.50;72.40
12426;DHT22;6277;49.824;9.562;2022-12-07T02:57:05;6.60;72.50
12426;DHT22;6277;49.824;9.562;2022-12-07T02:59:46;6.60;72.50
12426;DHT22;6277;49.824;9.562;2022-12-07T03:07:34;6.60;72.50
12426;DHT22;6277;49.824;9.562;2022-12-07T03:13:33;6.70;72.60
12426;DHT22;6277;49.824;9.562;2022-12-07T03:15:49;6.70;72.50
12426;DHT22;6277;49.824;9.562;2022-12-07T03:18:18;6.70;72.50
12426;DHT22;6277;49.824;9.562;2022-12-07T03:20:46;6.70;72.50
12426;DHT22;6277;49.824;9.562;2022-12-07T03:23:15;6.80;72.50
12426;DHT22;6277;49.824;9.562;2022-12-07T03:25:45;6.80;72.40
12426;DHT22;6277;49.824;9.562;2022-12-07T03:28:16;6.80;72.30
12426;DHT22;6277;49.824;9.562;2022-12-07T03:33:47;6.80;72.20
12426;DHT22;6277;49.824;9.562;2022-12-07T03:36:11;6.80;72.20
12426;DHT22;6277;49.824;9.562;2022-12-07T03:38:45;6.70;72.00
12426;DHT22;6277;49.824;9.562;2022-12-07T03:41:18;6.70;72.00
12426;DHT22;6277;49.824;9.562;2022-12-07T03:43:47;6.70;72.10
12426;DHT22;6277;49.824;9.562;2022-12-07T03:49:14;6.60;72.10
12426;DHT22;6277;49.824;9.562;2022-12-07T03:51:50;6.60;72.10
12426;DHT22;6277;49.824;9.562;2022-12-07T03:55:00;6.50;72.10
12426;DHT22;6277;49.824;9.562;2022-12-07T03:57:28;6.50;72.20
12426;DHT22;6277;49.824;9.562;2022-12-07T03:59:55;6.50;72.30
12426;DHT22;6277;49.824;9.562;2022-12-07T04:02:23;6.50;72.30
12426;DHT22;6277;49.824;9.562;2022-12-07T04:04:50;6.40;72.30
12426;DHT22;6277;49.824;9.562;2022-12-07T04:07:15;6.40;72.30
12426;DHT22;6277;49.824;9.562;2022-12-07T04:09:41;6.40;72.30
12426;DHT22;6277;49.824;9.562;2022-12-07T04:12:07;6.40;72.30
12426;DHT22;6277;49.824;9.562;2022-12-07T04:14:32;6.40;72.30
12426;DHT22;6277;49.824;9.562;2022-12-07T04:16:59;6.40;72.30
12426;DHT22;6277;49.824;9.562;2022-12-07T04:19:34;6.40;72.90
12426;DHT22;6277;49.824;9.562;2022-12-07T04:22:02;6.40;72.20
12426;DHT22;6277;49.824;9.562;2022-12-07T04:24:28;6.40;72.20
12426;DHT22;6277;49.824;9.562;2022-12-07T04:26:54;6.30;72.20
12426;DHT22;6277;49.824;9.562;2022-12-07T04:29:20;6.30;72.20
12426;DHT22;6277;49.824;9.562;2022-12-07T04:31:46;6.30;72.20
12426;DHT22;6277;49.824;9.562;2022-12-07T04:34:12;6.30;72.30
12426;DHT22;6277;49.824;9.562;2022-12-07T04:36:39;6.30;72.30
12426;DHT22;6277;49.824;9.562;2022-12-07T04:39:06;6.30;72.30
12426;DHT22;6277;49.824;9.562;2022-12-07T04:41:32;6.20;72.40
12426;DHT22;6277;49.824;9.562;2022-12-07T04:44:03;6.20;72.40
12426;DHT22;6277;49.824;9.562;2022-12-07T04:46:31;6.20;72.40
12426;DHT22;6277;49.824;9.562;2022-12-07T04:48:57;6.20;72.40
12426;DHT22;6277;49.824;9.562;2022-12-07T04:51:25;6.20;72.50
12426;DHT22;6277;49.824;9.562;2022-12-07T04:53:51;6.20;72.50
12426;DHT22;6277;49.824;9.562;2022-12-07T04:56:17;6.20;72.40
12426;DHT22;6277;49.824;9.562;2022-12-07T04:58:45;6.10;72.30
12426;DHT22;6277;49.824;9.562;2022-12-07T05:01:11;6.10;72.40
12426;DHT22;6277;49.824;9.562;2022-12-07T05:03:39;6.10;72.40
12426;DHT22;6277;49.824;9.562;2022-12-07T05:06:05;6.00;72.50
12426;DHT22;6277;49.824;9.562;2022-12-07T05:08:32;6.00;72.50
12426;DHT22;6277;49.824;9.562;2022-12-07T05:10:57;6.00;73.30
12426;DHT22;6277;49.824;9.562;2022-12-07T05:13:23;6.00;72.50
12426;DHT22;6277;49.824;9.562;2022-12-07T05:15:49;6.00;72.50
12426;DHT22;6277;49.824;9.562;2022-12-07T05:18:14;5.90;72.50
12426;DHT22;6277;49.824;9.562;2022-12-07T05:20:41;5.90;72.50
12426;DHT22;6277;49.824;9.562;2022-12-07T05:23:06;5.90;72.60
12426;DHT22;6277;49.824;9.562;2022-12-07T05:25:32;5.90;72.60
12426;DHT22;6277;49.824;9.562;2022-12-07T05:27:58;5.90;72.70
12426;DHT22;6277;49.824;9.562;2022-12-07T05:30:25;5.80;72.60
12426;DHT22;6277;49.824;9.562;2022-12-07T05:32:51;5.90;72.80
12426;DHT22;6277;49.824;9.562;2022-12-07T05:35:17;5.80;72.80
12426;DHT22;6277;49.824;9.562;2022-12-07T05:37:43;5.80;72.90
12426;DHT22;6277;49.824;9.562;2022-12-07T05:40:10;5.80;72.90
12426;DHT22;6277;49.824;9.562;2022-12-07T05:42:36;5.80;72.90
12426;DHT22;6277;49.824;9.562;2022-12-07T05:45:02;5.80;73.00
12426;DHT22;6277;49.824;9.562;2022-12-07T05:47:27;5.80;72.90
12426;DHT22;6277;49.824;9.562;2022-12-07T05:49:53;5.80;72.90
12426;DHT22;6277;49.824;9.562;2022-12-07T05:52:18;5.80;72.90
12426;DHT22;6277;49.824;9.562;2022-12-07T05:54:44;5.80;73.00
12426;DHT22;6277;49.824;9.562;2022-12-07T05:57:10;5.80;73.00
12426;DHT22;6277;49.824;9.562;2022-12-07T05:59:35;5.80;73.10
12426;DHT22;6277;49.824;9.562;2022-12-07T06:02:03;5.80;73.10
12426;DHT22;6277;49.824;9.562;2022-12-07T06:04:31;5.70;73.10
12426;DHT22;6277;49.824;9.562;2022-12-07T06:06:58;5.80;73.20
12426;DHT22;6277;49.824;9.562;2022-12-07T06:09:24;5.80;73.20
12426;DHT22;6277;49.824;9.562;2022-12-07T06:11:50;5.80;73.30
12426;DHT22;6277;49.824;9.562;2022-12-07T06:14:35;5.80;73.30
12426;DHT22;6277;49.824;9.562;2022-12-07T06:17:01;5.80;73.30
12426;DHT22;6277;49.824;9.562;2022-12-07T06:19:26;5.80;73.30
12426;DHT22;6277;49.824;9.562;2022-12-07T06:21:52;5.80;73.40
12426;DHT22;6277;49.824;9.562;2022-12-07T06:24:18;5.80;73.40
12426;DHT22;6277;49.824;9.562;2022-12-07T06:26:44;5.80;73.40
12426;DHT22;6277;49.824;9.562;2022-12-07T06:29:10;5.90;73.50
12426;DHT22;6277;49.824;9.562;2022-12-07T06:31:36;5.80;73.50
12426;DHT22;6277;49.824;9.562;2022-12-07T06:34:04;5.80;73.50
12426;DHT22;6277;49.824;9.562;2022-12-07T06:36:30;5.90;73.50
12426;DHT22;6277;49.824;9.562;2022-12-07T06:38:56;5.90;73.50
12426;DHT22;6277;49.824;9.562;2022-12-07T06:41:22;5.90;73.50
12426;DHT22;6277;49.824;9.562;2022-12-07T06:43:49;5.90;73.50
12426;DHT22;6277;49.824;9.562;2022-12-07T06:46:15;5.90;73.40
12426;DHT22;6277;49.824;9.562;2022-12-07T06:48:42;5.90;73.30
12426;DHT22;6277;49.824;9.562;2022-12-07T06:51:08;5.90;73.20
12426;DHT22;6277;49.824;9.562;2022-12-07T06:53:34;5.90;73.40
12426;DHT22;6277;49.824;9.562;2022-12-07T06:55:59;5.90;73.40
12426;DHT22;6277;49.824;9.562;2022-12-07T06:58:25;5.90;73.60
12426;DHT22;6277;49.824;9.562;2022-12-07T07:00:51;5.90;73.70
12426;DHT22;6277;49.824;9.562;2022-12-07T07:03:16;5.90;73.70
12426;DHT22;6277;49.824;9.562;2022-12-07T07:05:43;5.90;73.70
12426;DHT22;6277;49.824;9.562;2022-12-07T07:08:09;5.90;73.80
12426;DHT22;6277;49.824;9.562;2022-12-07T07:10:35;5.90;73.90
12426;DHT22;6277;49.824;9.562;2022-12-07T07:13:01;6.00;73.90
12426;DHT22;6277;49.824;9.562;2022-12-07T07:15:27;6.00;74.60
12426;DHT22;6277;49.824;9.562;2022-12-07T07:17:53;6.00;73.80
12426;DHT22;6277;49.824;9.562;2022-12-07T07:20:19;6.10;74.00
12426;DHT22;6277;49.824;9.562;2022-12-07T07:22:44;6.10;74.00
12426;DHT22;6277;49.824;9.562;2022-12-07T07:25:10;6.20;74.00
12426;DHT22;6277;49.824;9.562;2022-12-07T07:27:35;6.20;74.00
12426;DHT22;6277;49.824;9.562;2022-12-07T07:30:01;6.20;73.90
12426;DHT22;6277;49.824;9.562;2022-12-07T07:32:27;6.20;73.90
12426;DHT22;6277;49.824;9.562;2022-12-07T07:34:53;6.30;74.50
12426;DHT22;6277;49.824;9.562;2022-12-07T07:37:19;6.30;73.90
12426;DHT22;6277;49.824;9.562;2022-12-07T07:39:44;6.30;73.80
12426;DHT22;6277;49.824;9.562;2022-12-07T07:42:10;6.30;73.90
12426;DHT22;6277;49.824;9.562;2022-12-07T07:44:35;6.30;73.80
12426;DHT22;6277;49.824;9.562;2022-12-07T07:47:01;6.30;73.90
12426;DHT22;6277;49.824;9.562;2022-12-07T07:49:27;6.30;73.90
12426;DHT22;6277;49.824;9.562;2022-12-07T07:51:52;6.40;74.00
12426;DHT22;6277;49.824;9.562;2022-12-07T07:54:18;6.40;73.90
12426;DHT22;6277;49.824;9.562;2022-12-07T07:56:43;6.40;73.90
12426;DHT22;6277;49.824;9.562;2022-12-07T07:59:09;6.40;73.90
12426;DHT22;6277;49.824;9.562;2022-12-07T08:01:34;6.40;73.80
12426;DHT22;6277;49.824;9.562;2022-12-07T08:04:00;6.40;73.90
12426;DHT22;6277;49.824;9.562;2022-12-07T08:06:26;6.50;74.00
12426;DHT22;6277;49.824;9.562;2022-12-07T08:08:52;6.50;74.00
12426;DHT22;6277;49.824;9.562;2022-12-07T08:11:18;6.50;74.00
12426;DHT22;6277;49.824;9.562;2022-12-07T08:13:46;6.50;74.00
12426;DHT22;6277;49.824;9.562;2022-12-07T08:16:15;6.60;74.00
12426;DHT22;6277;49.824;9.562;2022-12-07T08:18:41;6.60;74.00
12426;DHT22;6277;49.824;9.562;2022-12-07T08:21:11;6.60;74.00
12426;DHT22;6277;49.824;9.562;2022-12-07T08:23:37;6.70;74.20
12426;DHT22;6277;49.824;9.562;2022-12-07T08:26:05;6.70;74.10
12426;DHT22;6277;49.824;9.562;2022-12-07T08:28:31;6.70;74.00
12426;DHT22;6277;49.824;9.562;2022-12-07T08:31:17;6.70;74.00
12426;DHT22;6277;49.824;9.562;2022-12-07T08:33:45;6.80;74.10
12426;DHT22;6277;49.824;9.562;2022-12-07T08:36:12;6.80;74.00
12426;DHT22;6277;49.824;9.562;2022-12-07T08:38:39;6.90;74.10
12426;DHT22;6277;49.824;9.562;2022-12-07T08:41:06;6.90;74.10
12426;DHT22;6277;49.824;9.562;2022-12-07T08:43:32;6.90;74.00
12426;DHT22;6277;49.824;9.562;2022-12-07T08:46:22;6.90;74.00
12426;DHT22;6277;49.824;9.562;2022-12-07T08:48:55;7.00;74.00
12426;DHT22;6277;49.824;9.562;2022-12-07T08:51:22;7.00;73.90
12426;DHT22;6277;49.824;9.562;2022-12-07T08:53:49;7.00;73.90
12426;DHT22;6277;49.824;9.562;2022-12-07T08:56:16;7.00;73.90
12426;DHT22;6277;49.824;9.562;2022-12-07T08:58:42;7.00;73.80
12426;DHT22;6277;49.824;9.562;2022-12-07T09:01:08;7.00;73.70
12426;DHT22;6277;49.824;9.562;2022-12-07T09:03:33;7.10;73.80
12426;DHT22;6277;49.824;9.562;2022-12-07T09:05:59;7.10;73.80
12426;DHT22;6277;49.824;9.562;2022-12-07T09:08:31;7.10;73.70
12426;DHT22;6277;49.824;9.562;2022-12-07T09:10:57;7.10;73.80
12426;DHT22;6277;49.824;9.562;2022-12-07T09:13:23;7.20;73.80
12426;DHT22;6277;49.824;9.562;2022-12-07T09:15:48;7.20;73.90
12426;DHT22;6277;49.824;9.562;2022-12-07T09:18:14;7.20;73.90
12426;DHT22;6277;49.824;9.562;2022-12-07T09:20:40;7.30;74.00
12426;DHT22;6277;49.824;9.562;2022-12-07T09:23:06;7.30;74.00
12426;DHT22;6277;49.824;9.562;2022-12-07T09:25:33;7.40;74.70
12426;DHT22;6277;49.824;9.562;2022-12-07T09:27:59;7.40;74.00
12426;DHT22;6277;49.824;9.562;2022-12-07T09:30:25;7.50;74.00
12426;DHT22;6277;49.824;9.562;2022-12-07T09:32:53;7.50;73.90
12426;DHT22;6277;49.824;9.562;2022-12-07T09:35:19;7.50;73.70
12426;DHT22;6277;49.824;9.562;2022-12-07T09:37:45;7.60;73.60
12426;DHT22;6277;49.824;9.562;2022-12-07T09:40:11;7.60;73.70
12426;DHT22;6277;49.824;9.562;2022-12-07T09:42:39;7.60;73.80
12426;DHT22;6277;49.824;9.562;2022-12-07T09:45:15;7.70;73.90
12426;DHT22;6277;49.824;9.562;2022-12-07T09:47:41;7.70;73.80
12426;DHT22;6277;49.824;9.562;2022-12-07T09:50:20;7.80;73.90
12426;DHT22;6277;49.824;9.562;2022-12-07T09:52:47;7.80;73.80
12426;DHT22;6277;49.824;9.562;2022-12-07T09:55:24;7.90;74.00
12426;DHT22;6277;49.824;9.562;2022-12-07T09:57:52;7.90;73.90
12426;DHT22;6277;49.824;9.562;2022-12-07T10:00:19;8.00;73.70
12426;DHT22;6277;49.824;9.562;2022-12-07T10:02:52;8.00;73.50
12426;DHT22;6277;49.824;9.562;2022-12-07T10:05:27;8.00;73.40
12426;DHT22;6277;49.824;9.562;2022-12-07T10:07:54;8.10;73.40
12426;DHT22;6277;49.824;9.562;2022-12-07T10:10:30;8.10;73.40
12426;DHT22;6277;49.824;9.562;2022-12-07T10:13:02;8.10;73.30
12426;DHT22;6277;49.824;9.562;2022-12-07T10:15:45;8.10;73.30
12426;DHT22;6277;49.824;9.562;2022-12-07T10:18:39;8.10;73.10
12426;DHT22;6277;49.824;9.562;2022-12-07T10:21:25;8.20;73.20
12426;DHT22;6277;49.824;9.562;2022-12-07T10:24:02;8.20;73.40
12426;DHT22;6277;49.824;9.562;2022-12-07T10:26:49;8.20;73.40
12426;DHT22;6277;49.824;9.562;2022-12-07T10:32:06;8.30;73.40
12426;DHT22;6277;49.824;9.562;2022-12-07T10:34:52;8.40;73.40
12426;DHT22;6277;49.824;9.562;2022-12-07T10:37:40;8.40;73.40
12426;DHT22;6277;49.824;9.562;2022-12-07T10:45:28;8.50;72.80
12426;DHT22;6277;49.824;9.562;2022-12-07T10:51:07;8.50;72.70
12426;DHT22;6277;49.824;9.562;2022-12-07T10:59:42;8.50;72.50
12426;DHT22;6277;49.824;9.562;2022-12-07T11:05:16;8.40;72.60
12426;DHT22;6277;49.824;9.562;2022-12-07T11:10:30;8.40;72.80
12426;DHT22;6277;49.824;9.562;2022-12-07T11:13:18;8.40;72.70
12426;DHT22;6277;49.824;9.562;2022-12-07T11:16:21;8.40;72.60
12426;DHT22;6277;49.824;9.562;2022-12-07T11:19:20;8.40;72.80
12426;DHT22;6277;49.824;9.562;2022-12-07T11:22:00;8.40;72.80
12426;DHT22;6277;49.824;9.562;2022-12-07T11:24:47;8.50;72.90
12426;DHT22;6277;49.824;9.562;2022-12-07T11:30:19;8.50;73.00
12426;DHT22;6277;49.824;9.562;2022-12-07T11:33:15;8.60;73.30
12426;DHT22;6277;49.824;9.562;2022-12-07T11:38:52;8.80;72.80
12426;DHT22;6277;49.824;9.562;2022-12-07T11:41:26;8.90;72.90
12426;DHT22;6277;49.824;9.562;2022-12-07T11:43:53;8.90;72.60
12426;DHT22;6277;49.824;9.562;2022-12-07T11:46:23;9.00;72.60
12426;DHT22;6277;49.824;9.562;2022-12-07T11:49:04;9.00;72.60
12426;DHT22;6277;49.824;9.562;2022-12-07T11:51:37;9.00;72.50
12426;DHT22;6277;49.824;9.562;2022-12-07T11:54:26;9.10;72.70
12426;DHT22;6277;49.824;9.562;2022-12-07T11:56:54;9.20;72.40
12426;DHT22;6277;49.824;9.562;2022-12-07T11:59:31;9.20;72.60
12426;DHT22;6277;49.824;9.562;2022-12-07T12:02:13;9.30;72.20
12426;DHT22;6277;49.824;9.562;2022-12-07T12:04:55;9.30;71.90
12426;DHT22;6277;49.824;9.562;2022-12-07T12:07:26;9.30;71.60
12426;DHT22;6277;49.824;9.562;2022-12-07T12:10:03;9.30;71.40
12426;DHT22;6277;49.824;9.562;2022-12-07T12:15:26;9.20;71.10
12426;DHT22;6277;49.824;9.562;2022-12-07T12:18:07;9.10;71.20
12426;DHT22;6277;49.824;9.562;2022-12-07T12:23:20;8.90;71.40
12426;DHT22;6277;49.824;9.562;2022-12-07T12:25:57;8.90;71.50
12426;DHT22;6277;49.824;9.562;2022-12-07T12:28:39;8.80;71.50
12426;DHT22;6277;49.824;9.562;2022-12-07T12:33:37;8.80;71.60
12426;DHT22;6277;49.824;9.562;2022-12-07T12:46:57;8.60;71.60
12426;DHT22;6277;49.824;9.562;2022-12-07T12:55:12;8.60;71.80
12426;DHT22;6277;49.824;9.562;2022-12-07T12:57:40;8.60;71.70
12426;DHT22;6277;49.824;9.562;2022-12-07T13:00:17;8.50;71.80
12426;DHT22;6277;49.824;9.562;2022-12-07T13:02:51;8.60;71.70
12426;DHT22;6277;49.824;9.562;2022-12-07T13:05:20;8.60;71.80
12426;DHT22;6277;49.824;9.562;2022-12-07T13:26:19;8.70;71.50
12426;DHT22;6277;49.824;9.562;2022-12-07T13:29:17;8.70;71.40
12426;DHT22;6277;49.824;9.562;2022-12-07T13:31:51;8.70;71.20
12426;DHT22;6277;49.824;9.562;2022-12-07T13:34:46;8.70;71.20
12426;DHT22;6277;49.824;9.562;2022-12-07T13:37:24;8.70;70.90
12426;DHT22;6277;49.824;9.562;2022-12-07T13:39:56;8.70;71.20
12426;DHT22;6277;49.824;9.562;2022-12-07T13:42:33;8.70;71.20
12426;DHT22;6277;49.824;9.562;2022-12-07T13:45:22;8.70;71.20
12426;DHT22;6277;49.824;9.562;2022-12-07T13:47:52;8.70;71.30
12426;DHT22;6277;49.824;9.562;2022-12-07T13:50:30;8.70;71.20
12426;DHT22;6277;49.824;9.562;2022-12-07T13:52:58;8.60;71.00
12426;DHT22;6277;49.824;9.562;2022-12-07T13:55:24;8.70;71.30
12426;DHT22;6277;49.824;9.562;2022-12-07T13:57:52;8.70;71.30
12426;DHT22;6277;49.824;9.562;2022-12-07T14:00:23;8.60;71.10
12426;DHT22;6277;49.824;9.562;2022-12-07T14:02:56;8.60;71.70
12426;DHT22;6277;49.824;9.562;2022-12-07T14:05:27;8.70;71.10
12426;DHT22;6277;49.824;9.562;2022-12-07T14:08:20;8.70;71.00
12426;DHT22;6277;49.824;9.562;2022-12-07T14:13:36;8.60;71.10
12426;DHT22;6277;49.824;9.562;2022-12-07T14:16:29;8.60;70.90
12426;DHT22;6277;49.824;9.562;2022-12-07T14:18:57;8.60;71.00
12426;DHT22;6277;49.824;9.562;2022-12-07T14:21:26;8.60;71.10
12426;DHT22;6277;49.824;9.562;2022-12-07T14:24:12;8.60;71.20
12426;DHT22;6277;49.824;9.562;2022-12-07T14:26:41;8.50;70.90
12426;DHT22;6277;49.824;9.562;2022-12-07T14:29:31;8.50;71.00
12426;DHT22;6277;49.824;9.562;2022-12-07T14:32:17;8.60;70.80
12426;DHT22;6277;49.824;9.562;2022-12-07T14:34:56;8.60;71.00
12426;DHT22;6277;49.824;9.562;2022-12-07T14:37:22;8.50;70.80
12426;DHT22;6277;49.824;9.562;2022-12-07T14:39:48;8.50;71.00
12426;DHT22;6277;49.824;9.562;2022-12-07T14:42:14;8.50;70.80
12426;DHT22;6277;49.824;9.562;2022-12-07T14:44:39;8.50;70.60
12426;DHT22;6277;49.824;9.562;2022-12-07T14:47:05;8.40;70.40
12426;DHT22;6277;49.824;9.562;2022-12-07T14:49:30;8.40;70.30
12426;DHT22;6277;49.824;9.562;2022-12-07T14:51:56;8.30;70.20
12426;DHT22;6277;49.824;9.562;2022-12-07T14:54:26;8.20;70.20
12426;DHT22;6277;49.824;9.562;2022-12-07T14:56:53;8.20;70.30
12426;DHT22;6277;49.824;9.562;2022-12-07T14:59:19;8.10;70.40
12426;DHT22;6277;49.824;9.562;2022-12-07T15:01:45;8.00;70.40
12426;DHT22;6277;49.824;9.562;2022-12-07T15:04:10;8.00;70.50
12426;DHT22;6277;49.824;9.562;2022-12-07T15:06:36;7.90;70.50
12426;DHT22;6277;49.824;9.562;2022-12-07T15:09:02;7.80;70.50
12426;DHT22;6277;49.824;9.562;2022-12-07T15:11:27;7.80;70.60
12426;DHT22;6277;49.824;9.562;2022-12-07T15:13:53;7.70;70.70
12426;DHT22;6277;49.824;9.562;2022-12-07T15:16:35;7.70;70.90
12426;DHT22;6277;49.824;9.562;2022-12-07T15:19:01;7.60;70.90
12426;DHT22;6277;49.824;9.562;2022-12-07T15:21:26;7.60;71.00
12426;DHT22;6277;49.824;9.562;2022-12-07T15:23:52;7.60;71.10
12426;DHT22;6277;49.824;9.562;2022-12-07T15:26:18;7.60;71.20
12426;DHT22;6277;49.824;9.562;2022-12-07T15:28:44;7.60;71.30
12426;DHT22;6277;49.824;9.562;2022-12-07T15:31:14;7.60;71.30
12426;DHT22;6277;49.824;9.562;2022-12-07T15:33:40;7.50;71.30
12426;DHT22;6277;49.824;9.562;2022-12-07T15:36:06;7.50;71.30
12426;DHT22;6277;49.824;9.562;2022-12-07T15:38:31;7.50;71.30
12426;DHT22;6277;49.824;9.562;2022-12-07T15:40:57;7.50;71.40
12426;DHT22;6277;49.824;9.562;2022-12-07T15:43:23;7.50;71.30
12426;DHT22;6277;49.824;9.562;2022-12-07T15:46:07;7.50;71.10
12426;DHT22;6277;49.824;9.562;2022-12-07T15:48:32;7.50;71.60
12426;DHT22;6277;49.824;9.562;2022-12-07T15:51:06;7.40;70.80
12426;DHT22;6277;49.824;9.562;2022-12-07T15:53:33;7.30;70.70
12426;DHT22;6277;49.824;9.562;2022-12-07T15:55:59;7.30;70.70
12426;DHT22;6277;49.824;9.562;2022-12-07T15:58:25;7.20;70.80
12426;DHT22;6277;49.824;9.562;2022-12-07T16:00:51;7.10;70.90
12426;DHT22;6277;49.824;9.562;2022-12-07T16:03:16;7.10;71.00
12426;DHT22;6277;49.824;9.562;2022-12-07T16:05:48;7.00;71.10
12426;DHT22;6277;49.824;9.562;2022-12-07T16:08:14;7.00;71.40
12426;DHT22;6277;49.824;9.562;2022-12-07T16:10:39;7.00;71.40
12426;DHT22;6277;49.824;9.562;2022-12-07T16:13:09;6.90;71.60
12426;DHT22;6277;49.824;9.562;2022-12-07T16:15:40;6.90;71.70
12426;DHT22;6277;49.824;9.562;2022-12-07T16:18:06;6.90;71.90
12426;DHT22;6277;49.824;9.562;2022-12-07T16:20:32;6.90;72.00
12426;DHT22;6277;49.824;9.562;2022-12-07T16:22:58;6.90;72.00
12426;DHT22;6277;49.824;9.562;2022-12-07T16:25:24;7.00;72.10
12426;DHT22;6277;49.824;9.562;2022-12-07T16:27:51;7.00;72.10
12426;DHT22;6277;49.824;9.562;2022-12-07T16:30:17;7.00;72.30
12426;DHT22;6277;49.824;9.562;2022-12-07T16:32:42;7.00;72.20
12426;DHT22;6277;49.824;9.562;2022-12-07T16:35:09;7.00;72.10
12426;DHT22;6277;49.824;9.562;2022-12-07T16:37:34;7.00;72.10
12426;DHT22;6277;49.824;9.562;2022-12-07T16:40:00;7.00;72.00
12426;DHT22;6277;49.824;9.562;2022-12-07T16:42:26;7.00;72.10
12426;DHT22;6277;49.824;9.562;2022-12-07T16:44:52;7.00;72.10
12426;DHT22;6277;49.824;9.562;2022-12-07T16:47:17;7.00;72.10
12426;DHT22;6277;49.824;9.562;2022-12-07T16:49:43;7.00;72.20
12426;DHT22;6277;49.824;9.562;2022-12-07T16:52:09;7.00;72.30
12426;DHT22;6277;49.824;9.562;2022-12-07T16:54:35;7.00;72.30
12426;DHT22;6277;49.824;9.562;2022-12-07T16:57:01;7.00;72.30
12426;DHT22;6277;49.824;9.562;2022-12-07T16:59:27;7.00;72.30
12426;DHT22;6277;49.824;9.562;2022-12-07T17:01:52;7.00;72.30
12426;DHT22;6277;49.824;9.562;2022-12-07T17:04:18;7.10;72.40
12426;DHT22;6277;49.824;9.562;2022-12-07T17:06:43;7.10;72.40
12426;DHT22;6277;49.824;9.562;2022-12-07T17:09:09;7.10;72.40
12426;DHT22;6277;49.824;9.562;2022-12-07T17:11:37;7.10;72.40
12426;DHT22;6277;49.824;9.562;2022-12-07T17:14:02;7.10;72.50
12426;DHT22;6277;49.824;9.562;2022-12-07T17:16:47;7.10;73.20
12426;DHT22;6277;49.824;9.562;2022-12-07T17:19:14;7.10;72.60
12426;DHT22;6277;49.824;9.562;2022-12-07T17:21:41;7.10;72.60
12426;DHT22;6277;49.824;9.562;2022-12-07T17:24:09;7.20;72.70
12426;DHT22;6277;49.824;9.562;2022-12-07T17:26:36;7.20;72.80
12426;DHT22;6277;49.824;9.562;2022-12-07T17:29:04;7.20;72.80
12426;DHT22;6277;49.824;9.562;2022-12-07T17:31:30;7.30;72.80
12426;DHT22;6277;49.824;9.562;2022-12-07T17:33:57;7.30;72.70
12426;DHT22;6277;49.824;9.562;2022-12-07T17:36:25;7.30;72.70
12426;DHT22;6277;49.824;9.562;2022-12-07T17:38:52;7.30;72.70
12426;DHT22;6277;49.824;9.562;2022-12-07T17:41:23;7.40;72.70
12426;DHT22;6277;49.824;9.562;2022-12-07T17:44:26;7.40;72.70
12426;DHT22;6277;49.824;9.562;2022-12-07T17:46:53;7.40;72.50
12426;DHT22;6277;49.824;9.562;2022-12-07T17:49:24;7.40;72.30
12426;DHT22;6277;49.824;9.562;2022-12-07T17:51:50;7.40;72.30
12426;DHT22;6277;49.824;9.562;2022-12-07T17:54:34;7.40;72.30
12426;DHT22;6277;49.824;9.562;2022-12-07T17:57:00;7.30;72.30
12426;DHT22;6277;49.824;9.562;2022-12-07T17:59:25;7.30;72.30